createdAt,value
2018-06-13T00:00:02.721Z,12.6
2018-06-13T00:15:03.040Z,12.6
2018-06-13T00:30:02.496Z,12.6
2018-06-13T00:45:02.831Z,12.6
2018-06-13T01:00:03.189Z,12.6
2018-06-13T01:15:02.513Z,12.6
2018-06-13T01:30:03.013Z,12.6
2018-06-13T01:45:02.374Z,12.6
2018-06-13T02:00:02.688Z,12.6
2018-06-13T02:15:03.029Z,12.6
2018-06-13T02:30:02.455Z,12.6
2018-06-13T02:45:02.785Z,12.6
2018-06-13T03:00:03.137Z,12.5
2018-06-13T03:15:02.700Z,12.5
2018-06-13T03:30:03.193Z,12.5
2018-06-13T03:45:02.596Z,12.4
2018-06-13T04:00:02.911Z,12.4
2018-06-13T04:15:03.269Z,12.4
2018-06-13T04:30:02.717Z,12.4
2018-06-13T04:45:03.093Z,12.4
2018-06-13T05:00:02.492Z,12.4
2018-06-13T05:15:02.802Z,12.4
2018-06-13T05:30:13.020Z,12.4
2018-06-13T05:45:02.675Z,12.4
2018-06-13T06:00:03.465Z,12.4
2018-06-13T06:15:02.819Z,12.4
2018-06-13T06:30:02.358Z,12.4
2018-06-13T06:45:02.684Z,12.4
2018-06-13T07:00:03.568Z,12.4
2018-06-13T07:15:02.984Z,12.3
2018-06-13T07:30:03.246Z,12.3
2018-06-13T07:45:02.704Z,12.3
2018-06-13T08:00:04.075Z,12.3
2018-06-13T08:15:02.490Z,12.3
2018-06-13T08:30:02.877Z,12.3
2018-06-13T08:45:03.380Z,12.3
2018-06-13T09:00:02.884Z,12.3
2018-06-13T09:15:03.386Z,12.3
2018-06-13T09:30:02.994Z,12.3
2018-06-13T09:45:02.537Z,12.3
2018-06-13T10:00:03.043Z,12.3
2018-06-13T10:15:02.634Z,12.4
2018-06-13T10:30:03.189Z,12.4
2018-06-13T10:45:02.648Z,12.4
2018-06-13T11:00:03.040Z,12.4
2018-06-13T11:15:02.475Z,12.4
2018-06-13T11:30:02.888Z,12.4
2018-06-13T11:45:03.320Z,12.4
2018-06-13T12:00:02.658Z,12.4
2018-06-13T12:15:03.038Z,12.4
2018-06-13T12:30:02.541Z,12.4
2018-06-13T12:45:02.884Z,12.4
2018-06-13T13:00:03.272Z,12.4
2018-06-13T13:15:02.619Z,12.4
2018-06-13T13:30:03.071Z,12.4
2018-06-13T13:45:02.423Z,12.4
2018-06-13T14:00:02.811Z,12.4
2018-06-13T14:15:03.215Z,12.4
2018-06-13T14:30:02.604Z,12.4
2018-06-13T14:45:03.026Z,12.4
2018-06-13T15:00:02.388Z,12.4
2018-06-13T15:15:02.730Z,12.4
2018-06-13T15:30:03.137Z,12.4
2018-06-13T15:45:02.510Z,12.4
2018-06-13T16:00:02.859Z,12.3
2018-06-13T16:15:03.263Z,12.3
2018-06-13T16:30:02.717Z,12.3
2018-06-13T16:45:03.018Z,12.2
2018-06-13T17:00:02.393Z,12.2
2018-06-13T17:15:02.729Z,12.2
2018-06-13T17:30:03.137Z,12.2
2018-06-13T17:45:02.584Z,12.1
2018-06-13T18:00:02.990Z,12.1
2018-06-13T18:15:02.440Z,12.1
2018-06-13T18:30:02.880Z,12.1
2018-06-13T18:45:03.231Z,12.1
2018-06-13T19:00:02.661Z,12.1
2018-06-13T19:15:02.995Z,12.1
2018-06-13T19:30:02.400Z,12.1
2018-06-13T19:45:02.797Z,12.1
2018-06-13T20:00:03.117Z,12.1
2018-06-13T20:15:02.552Z,12.1
2018-06-13T20:30:02.970Z,12.1
2018-06-13T20:45:02.451Z,12.1
2018-06-13T21:00:02.804Z,12.1
2018-06-13T21:15:03.132Z,12
2018-06-13T21:30:02.635Z,12
2018-06-13T21:45:02.962Z,12
2018-06-13T22:00:02.393Z,11.9
2018-06-13T22:15:02.733Z,11.9
2018-06-13T22:30:03.288Z,11.9
2018-06-13T22:45:02.700Z,11.9
2018-06-13T23:00:03.005Z,11.8
2018-06-13T23:15:02.451Z,11.8
2018-06-13T23:30:02.890Z,11.8
2018-06-13T23:45:03.238Z,11.7
